createdAt,value
2022-10-14T00:01:20.694Z,8.30
2022-10-14T00:03:48.404Z,8.60
2022-10-14T00:06:20.716Z,10.40
2022-10-14T00:08:48.232Z,10.60
2022-10-14T00:11:20.215Z,9.50
2022-10-14T00:13:48.140Z,8.10
2022-10-14T00:16:24.753Z,9.40
2022-10-14T00:18:52.229Z,9.80
2022-10-14T00:21:20.064Z,9.00
2022-10-14T00:23:47.732Z,8.80
2022-10-14T00:26:31.137Z,8.90
2022-10-14T00:29:00.189Z,7.60
2022-10-14T00:31:28.638Z,7.90
2022-10-14T00:33:56.760Z,8.50
2022-10-14T00:36:25.876Z,7.10
2022-10-14T00:38:54.962Z,8.20
2022-10-14T00:41:27.836Z,7.60
2022-10-14T00:44:07.205Z,8.30
2022-10-14T00:46:38.507Z,9.80
2022-10-14T00:51:43.533Z,7.20
2022-10-14T00:54:15.413Z,7.80
2022-10-14T00:56:45.045Z,7.50
2022-10-14T00:59:13.124Z,7.60
2022-10-14T01:01:40.509Z,8.30
2022-10-14T01:04:08.015Z,6.90
2022-10-14T01:07:24.783Z,7.30
2022-10-14T01:10:12.101Z,6.00
2022-10-14T01:13:32.859Z,6.80
2022-10-14T01:16:03.197Z,6.90
2022-10-14T01:19:10.767Z,7.20
2022-10-14T01:21:56.550Z,6.10
2022-10-14T01:25:06.376Z,6.20
2022-10-14T01:27:49.552Z,6.30
2022-10-14T01:30:21.953Z,5.80
2022-10-14T01:33:12.206Z,7.00
2022-10-14T01:36:17.972Z,6.40
2022-10-14T01:38:53.812Z,6.10
2022-10-14T01:41:30.154Z,6.40
2022-10-14T01:44:04.091Z,6.80
2022-10-14T01:46:33.857Z,6.70
2022-10-14T01:49:08.128Z,6.60
2022-10-14T01:51:45.652Z,6.20
2022-10-14T01:54:20.542Z,5.70
2022-10-14T01:56:49.196Z,7.20
2022-10-14T01:59:20.083Z,6.90
2022-10-14T02:01:47.505Z,6.80
2022-10-14T02:04:23.984Z,5.90
2022-10-14T02:07:11.670Z,6.90
2022-10-14T02:09:51.904Z,6.40
2022-10-14T02:12:44.147Z,7.20
2022-10-14T02:15:34.057Z,7.20
2022-10-14T02:18:33.272Z,6.70
2022-10-14T02:21:27.018Z,6.00
2022-10-14T02:24:20.684Z,7.60
2022-10-14T02:26:51.285Z,7.80
2022-10-14T02:29:20.309Z,8.40
2022-10-14T02:31:49.661Z,7.40
2022-10-14T02:34:21.337Z,8.60
2022-10-14T02:36:50.124Z,8.90
2022-10-14T02:39:26.024Z,8.40
2022-10-14T02:41:53.417Z,8.90
2022-10-14T02:44:20.817Z,8.90
2022-10-14T02:46:48.845Z,9.80
2022-10-14T02:49:17.620Z,7.90
2022-10-14T02:51:44.980Z,10.00
2022-10-14T02:54:12.342Z,11.00
2022-10-14T02:56:40.036Z,8.40
2022-10-14T02:59:07.624Z,8.70
2022-10-14T03:01:37.559Z,8.00
2022-10-14T03:04:05.438Z,8.40
2022-10-14T03:06:32.913Z,8.10
2022-10-14T03:09:00.275Z,9.60
2022-10-14T03:11:27.640Z,8.90
2022-10-14T03:13:54.930Z,8.90
2022-10-14T03:16:22.419Z,8.40
2022-10-14T03:18:49.887Z,9.70
2022-10-14T03:21:17.329Z,9.80
2022-10-14T03:23:44.940Z,9.40
2022-10-14T03:26:14.095Z,8.50
2022-10-14T03:28:41.991Z,8.30
2022-10-14T03:31:09.413Z,9.20
2022-10-14T03:33:37.005Z,7.30
2022-10-14T03:36:04.662Z,7.80
2022-10-14T03:38:31.958Z,8.70
2022-10-14T03:40:59.458Z,8.80
2022-10-14T03:43:28.478Z,7.10
2022-10-14T03:45:55.928Z,7.90
2022-10-14T03:48:23.354Z,11.70
2022-10-14T03:50:50.922Z,6.60
2022-10-14T03:53:19.174Z,8.90
2022-10-14T03:55:46.498Z,8.70
2022-10-14T03:58:13.994Z,7.10
2022-10-14T04:00:41.349Z,5.90
2022-10-14T04:03:08.905Z,6.90
2022-10-14T04:05:36.975Z,6.00
2022-10-14T04:08:04.677Z,5.70
2022-10-14T04:10:32.009Z,5.60
2022-10-14T04:12:59.390Z,6.40
2022-10-14T04:15:27.288Z,5.50
2022-10-14T04:17:56.637Z,5.40
2022-10-14T04:20:24.075Z,5.10
2022-10-14T04:22:51.415Z,5.90
2022-10-14T04:25:18.872Z,5.40
2022-10-14T04:27:46.187Z,5.80
2022-10-14T04:30:13.822Z,6.60
2022-10-14T04:32:41.138Z,4.50
2022-10-14T04:35:09.657Z,4.00
2022-10-14T04:37:36.983Z,4.00
2022-10-14T04:40:05.787Z,3.60
2022-10-14T04:42:33.273Z,3.80
2022-10-14T04:45:00.661Z,3.60
2022-10-14T04:47:28.000Z,4.00
2022-10-14T04:49:55.278Z,3.80
2022-10-14T04:52:22.946Z,3.80
2022-10-14T04:54:50.508Z,3.70
2022-10-14T04:57:17.825Z,4.90
2022-10-14T04:59:45.161Z,5.70
2022-10-14T05:02:12.608Z,3.30
2022-10-14T05:04:40.209Z,3.80
2022-10-14T05:07:07.566Z,3.70
2022-10-14T05:09:34.959Z,3.60
2022-10-14T05:12:02.601Z,4.20
2022-10-14T05:14:30.175Z,3.80
2022-10-14T05:16:57.495Z,3.30
2022-10-14T05:19:25.293Z,3.50
2022-10-14T05:21:52.762Z,3.40
2022-10-14T05:24:20.347Z,3.00
2022-10-14T05:26:47.775Z,4.70
2022-10-14T05:29:15.413Z,3.30
2022-10-14T05:31:43.310Z,3.90
2022-10-14T05:34:12.659Z,3.50
2022-10-14T05:36:40.019Z,4.90
2022-10-14T05:39:08.545Z,3.40
2022-10-14T05:41:36.127Z,3.50
2022-10-14T05:44:05.146Z,3.50
2022-10-14T05:46:32.494Z,5.60
2022-10-14T05:49:02.311Z,4.20
2022-10-14T05:51:29.665Z,5.00
2022-10-14T05:53:57.039Z,4.80
2022-10-14T05:56:24.439Z,3.80
2022-10-14T05:58:51.780Z,3.80
2022-10-14T06:01:19.178Z,4.70
2022-10-14T06:03:53.584Z,5.00
2022-10-14T06:06:26.605Z,5.10
2022-10-14T06:08:57.008Z,5.60
2022-10-14T06:11:24.605Z,4.90
2022-10-14T06:13:52.575Z,5.50
2022-10-14T06:16:20.004Z,5.20
2022-10-14T06:18:52.199Z,6.60
2022-10-14T06:21:21.820Z,7.40
2022-10-14T06:23:49.289Z,5.50
2022-10-14T06:26:17.241Z,5.70
2022-10-14T06:28:44.669Z,6.40
2022-10-14T06:31:13.447Z,6.90
2022-10-14T06:33:41.592Z,6.10
2022-10-14T06:36:10.221Z,6.90
2022-10-14T06:38:37.575Z,6.50
2022-10-14T06:41:04.976Z,6.50
2022-10-14T06:43:32.776Z,6.20
2022-10-14T06:46:00.144Z,6.40
2022-10-14T06:48:27.559Z,5.20
2022-10-14T06:50:55.097Z,5.10
2022-10-14T06:53:22.403Z,7.10
2022-10-14T06:55:49.710Z,7.70
2022-10-14T06:58:17.105Z,6.70
2022-10-14T07:00:47.958Z,5.20
2022-10-14T07:05:42.968Z,7.00
2022-10-14T07:08:14.520Z,6.50
2022-10-14T07:10:43.908Z,6.30
2022-10-14T07:13:11.258Z,6.60
2022-10-14T07:15:39.261Z,5.60
2022-10-14T07:18:07.282Z,7.80
2022-10-14T07:20:34.740Z,5.50
2022-10-14T07:23:02.112Z,5.90
2022-10-14T07:25:29.588Z,4.60
2022-10-14T07:27:56.897Z,5.80
2022-10-14T07:30:24.312Z,6.80
2022-10-14T07:32:51.664Z,5.90
2022-10-14T07:35:19.227Z,4.50
2022-10-14T07:37:47.605Z,5.30
2022-10-14T07:40:15.113Z,4.90
2022-10-14T07:42:42.646Z,6.60
2022-10-14T07:45:16.088Z,4.60
2022-10-14T07:47:45.184Z,4.60
2022-10-14T07:50:12.907Z,5.20
2022-10-14T07:52:41.624Z,7.70
2022-10-14T07:55:09.358Z,4.30
2022-10-14T07:57:36.733Z,5.50
2022-10-14T08:00:05.385Z,4.30
2022-10-14T08:02:32.717Z,4.50
2022-10-14T08:07:48.290Z,4.70
2022-10-14T08:10:16.243Z,6.10
2022-10-14T08:12:43.573Z,4.10
2022-10-14T08:15:11.161Z,4.10
2022-10-14T08:17:38.544Z,3.60
2022-10-14T08:20:06.733Z,7.70
2022-10-14T08:22:34.214Z,5.30
2022-10-14T08:25:01.622Z,4.30
2022-10-14T08:27:29.001Z,5.70
2022-10-14T08:29:56.388Z,5.90
2022-10-14T08:32:24.321Z,6.00
2022-10-14T08:34:52.284Z,3.10
2022-10-14T08:37:19.923Z,4.50
2022-10-14T08:39:47.595Z,4.00
2022-10-14T08:42:49.173Z,4.00
2022-10-14T08:48:17.468Z,5.00
2022-10-14T08:50:52.641Z,6.10
2022-10-14T08:53:29.278Z,3.80
2022-10-14T08:56:01.810Z,3.90
2022-10-14T08:58:40.437Z,3.70
2022-10-14T09:01:24.724Z,4.40
2022-10-14T09:03:57.887Z,6.40
2022-10-14T09:06:30.507Z,4.30
2022-10-14T09:09:36.037Z,5.90
2022-10-14T09:12:10.157Z,4.40
2022-10-14T09:14:44.731Z,4.00
2022-10-14T09:17:27.939Z,5.10
2022-10-14T09:20:15.622Z,4.40
2022-10-14T09:22:43.124Z,3.70
2022-10-14T09:25:15.911Z,3.60
2022-10-14T09:27:43.343Z,6.30
2022-10-14T09:30:17.276Z,6.20
2022-10-14T09:32:49.082Z,3.80
2022-10-14T09:35:44.072Z,6.00
2022-10-14T09:38:13.153Z,4.30
2022-10-14T09:40:46.809Z,6.30
2022-10-14T09:43:21.428Z,4.90
2022-10-14T09:46:00.170Z,5.20
2022-10-14T09:48:39.075Z,5.70
2022-10-14T09:51:20.985Z,5.10
2022-10-14T09:53:55.333Z,5.80
2022-10-14T09:56:59.450Z,5.20
2022-10-14T09:59:27.960Z,6.50
2022-10-14T10:02:02.688Z,6.50
2022-10-14T10:04:47.232Z,5.50
2022-10-14T10:07:34.902Z,6.10
2022-10-14T10:10:18.899Z,5.10
2022-10-14T10:12:47.215Z,5.30
2022-10-14T10:15:21.507Z,5.30
2022-10-14T10:17:50.281Z,6.20
2022-10-14T10:20:31.958Z,6.10
2022-10-14T10:23:25.439Z,4.60
2022-10-14T10:25:53.253Z,4.90
2022-10-14T10:28:32.818Z,4.80
2022-10-14T10:31:26.309Z,3.70
2022-10-14T10:34:36.625Z,4.50
2022-10-14T10:37:31.618Z,3.80
2022-10-14T10:40:20.530Z,5.10
2022-10-14T10:43:18.712Z,6.80
2022-10-14T10:46:10.273Z,5.10
2022-10-14T10:49:29.055Z,6.30
2022-10-14T10:52:09.041Z,4.50
2022-10-14T10:55:19.160Z,3.90
2022-10-14T10:57:59.312Z,5.70
2022-10-14T11:00:30.179Z,4.60
2022-10-14T11:03:16.004Z,5.20
2022-10-14T11:05:54.150Z,5.40
2022-10-14T11:09:14.786Z,4.20
2022-10-14T11:12:12.891Z,5.80
2022-10-14T11:14:53.637Z,4.50
2022-10-14T11:18:11.279Z,5.50
2022-10-14T11:21:02.278Z,5.40
2022-10-14T11:23:41.424Z,5.80
2022-10-14T11:29:47.057Z,6.30
2022-10-14T11:32:39.463Z,4.80
2022-10-14T11:35:44.424Z,4.80
2022-10-14T11:38:36.068Z,5.20
2022-10-14T11:41:18.620Z,6.40
2022-10-14T11:47:33.961Z,3.20
2022-10-14T11:50:19.896Z,3.40
2022-10-14T11:53:03.444Z,3.90
2022-10-14T11:55:40.354Z,4.20
2022-10-14T11:58:20.509Z,3.80
2022-10-14T12:01:00.180Z,4.10
2022-10-14T12:04:01.143Z,4.00
2022-10-14T12:06:55.761Z,4.60
2022-10-14T12:09:39.025Z,5.40
2022-10-14T12:12:10.462Z,4.00
2022-10-14T12:14:55.331Z,5.00
2022-10-14T12:17:31.397Z,3.00
2022-10-14T12:20:14.276Z,4.90
2022-10-14T12:22:41.814Z,3.70
2022-10-14T12:25:17.443Z,3.50
2022-10-14T12:27:45.082Z,3.40
2022-10-14T12:30:38.380Z,2.70
2022-10-14T12:33:09.760Z,5.30
2022-10-14T12:35:53.409Z,4.90
2022-10-14T12:38:22.078Z,3.30
2022-10-14T12:40:49.608Z,3.70
2022-10-14T12:43:21.718Z,4.40
2022-10-14T12:46:03.837Z,5.40
2022-10-14T12:48:35.976Z,5.00
2022-10-14T12:51:15.319Z,6.80
2022-10-14T12:54:14.751Z,6.90
2022-10-14T12:56:58.299Z,4.50
2022-10-14T12:59:37.003Z,5.00
2022-10-14T13:02:19.370Z,4.20
2022-10-14T13:04:50.250Z,5.10
2022-10-14T13:07:38.848Z,4.50
2022-10-14T13:10:36.163Z,4.20
2022-10-14T13:13:38.248Z,6.30
2022-10-14T13:16:10.982Z,5.80
2022-10-14T13:18:44.422Z,7.00
2022-10-14T13:21:41.279Z,4.90
2022-10-14T13:24:20.555Z,6.90
2022-10-14T13:26:54.119Z,6.00
2022-10-14T13:29:28.235Z,5.90
2022-10-14T13:32:35.467Z,5.80
2022-10-14T13:35:19.630Z,5.30
2022-10-14T13:38:07.283Z,4.40
2022-10-14T13:40:43.762Z,5.20
2022-10-14T13:43:28.792Z,5.20
2022-10-14T13:46:08.309Z,4.40
2022-10-14T13:48:50.652Z,5.70
2022-10-14T13:51:36.764Z,4.60
2022-10-14T13:54:23.893Z,5.80
2022-10-14T14:00:38.122Z,5.30
2022-10-14T14:02:40.106Z,7.10
2022-10-14T14:05:16.305Z,4.60
2022-10-14T14:10:34.534Z,6.40
2022-10-14T14:13:06.483Z,4.70
2022-10-14T14:15:34.929Z,4.10
2022-10-14T14:18:02.791Z,4.50
2022-10-14T14:20:33.928Z,3.10
2022-10-14T14:25:34.925Z,4.50
2022-10-14T14:28:06.055Z,3.60
2022-10-14T14:30:39.026Z,4.50
2022-10-14T14:33:17.146Z,4.90
2022-10-14T14:35:55.640Z,3.00
2022-10-14T14:38:29.058Z,4.20
2022-10-14T14:41:02.250Z,3.90
2022-10-14T14:43:35.798Z,5.50
2022-10-14T14:46:06.137Z,6.90
2022-10-14T14:48:34.578Z,4.00
2022-10-14T14:51:02.262Z,3.90
2022-10-14T14:53:29.985Z,3.90
2022-10-14T14:56:10.518Z,3.60
2022-10-14T14:58:50.794Z,5.00
2022-10-14T15:01:27.822Z,4.00
2022-10-14T15:04:13.137Z,4.30
2022-10-14T15:07:08.627Z,3.80
2022-10-14T15:09:49.347Z,3.70
2022-10-14T15:12:21.164Z,4.70
2022-10-14T15:14:55.907Z,6.00
2022-10-14T15:17:34.499Z,4.90
2022-10-14T15:20:04.898Z,5.90
2022-10-14T15:22:35.555Z,6.30
2022-10-14T15:25:21.007Z,4.30
2022-10-14T15:28:00.832Z,5.70
2022-10-14T15:30:51.647Z,5.50
2022-10-14T15:33:22.421Z,4.80
2022-10-14T15:36:04.529Z,6.50
2022-10-14T15:41:05.421Z,4.90
2022-10-14T15:43:34.711Z,6.00
2022-10-14T15:46:20.827Z,6.20
2022-10-14T15:48:58.154Z,5.80
2022-10-14T15:51:30.643Z,6.70
2022-10-14T15:53:58.319Z,5.60
2022-10-14T15:56:25.629Z,5.90
2022-10-14T15:58:53.014Z,5.40
2022-10-14T16:01:22.757Z,6.50
2022-10-14T16:03:55.135Z,5.70
2022-10-14T16:06:24.169Z,8.10
2022-10-14T16:08:51.570Z,6.50
2022-10-14T16:11:31.191Z,5.70
2022-10-14T16:13:58.556Z,5.40
2022-10-14T16:16:34.087Z,5.60
2022-10-14T16:19:02.458Z,5.90
2022-10-14T16:21:29.954Z,6.90
2022-10-14T16:23:58.962Z,5.50
2022-10-14T16:26:26.751Z,5.40
2022-10-14T16:28:54.208Z,7.10
2022-10-14T16:31:21.673Z,6.20
2022-10-14T16:33:51.143Z,6.30
2022-10-14T16:36:18.591Z,6.40
2022-10-14T16:38:46.106Z,7.90
2022-10-14T16:41:13.634Z,5.70
2022-10-14T16:43:40.992Z,6.30
2022-10-14T16:46:11.708Z,8.70
2022-10-14T16:48:42.064Z,6.50
2022-10-14T16:51:09.516Z,7.00
2022-10-14T16:53:45.123Z,7.10
2022-10-14T16:56:39.651Z,6.70
2022-10-14T16:59:08.196Z,6.80
2022-10-14T17:01:35.646Z,8.10
2022-10-14T17:04:03.034Z,8.40
2022-10-14T17:06:30.408Z,8.00
2022-10-14T17:08:58.232Z,6.90
2022-10-14T17:11:28.126Z,9.50
2022-10-14T17:13:59.238Z,11.00
2022-10-14T17:16:28.791Z,10.40
2022-10-14T17:18:58.451Z,8.40
2022-10-14T17:21:29.389Z,7.90
2022-10-14T17:24:04.278Z,6.30
2022-10-14T17:26:33.714Z,6.50
2022-10-14T17:29:01.533Z,8.00
2022-10-14T17:31:29.479Z,5.70
2022-10-14T17:33:58.961Z,6.00
2022-10-14T17:36:30.638Z,7.40
2022-10-14T17:38:59.688Z,5.40
2022-10-14T17:41:29.519Z,5.90
2022-10-14T17:44:00.315Z,5.20
2022-10-14T17:46:29.703Z,3.90
2022-10-14T17:49:00.800Z,4.80
2022-10-14T17:51:28.875Z,4.30
2022-10-14T17:54:08.473Z,5.30
2022-10-14T17:56:37.178Z,4.80
2022-10-14T17:59:10.405Z,4.00
2022-10-14T18:02:00.896Z,4.10
2022-10-14T18:04:25.362Z,5.50
2022-10-14T18:06:54.104Z,5.40
2022-10-14T18:09:21.601Z,4.90
2022-10-14T18:14:40.411Z,4.10
2022-10-14T18:17:11.025Z,4.20
2022-10-14T18:19:40.921Z,4.10
2022-10-14T18:22:11.055Z,3.90
2022-10-14T18:24:39.300Z,4.80
2022-10-14T18:27:07.002Z,6.20
2022-10-14T18:29:34.411Z,4.50
2022-10-14T18:32:01.810Z,6.20
2022-10-14T18:34:29.336Z,4.80
2022-10-14T18:36:56.822Z,5.40
2022-10-14T18:39:24.205Z,5.00
2022-10-14T18:41:51.607Z,3.40
2022-10-14T18:44:19.025Z,4.00
2022-10-14T18:46:47.608Z,5.50
2022-10-14T18:49:15.154Z,6.00
2022-10-14T18:51:43.410Z,6.00
2022-10-14T18:54:17.265Z,4.70
2022-10-14T18:56:46.117Z,4.60
2022-10-14T18:59:18.354Z,4.10
2022-10-14T19:01:50.507Z,5.50
2022-10-14T19:04:17.966Z,4.20
2022-10-14T19:06:48.963Z,6.70
2022-10-14T19:09:20.925Z,4.90
2022-10-14T19:11:52.502Z,5.30
2022-10-14T19:14:20.732Z,6.00
2022-10-14T19:16:49.683Z,4.80
2022-10-14T19:19:19.825Z,5.00
2022-10-14T19:21:54.099Z,4.80
2022-10-14T19:24:21.592Z,6.00
2022-10-14T19:26:50.056Z,5.70
2022-10-14T19:29:17.907Z,3.90
2022-10-14T19:31:45.698Z,3.40
2022-10-14T19:34:15.895Z,3.70
2022-10-14T19:36:44.910Z,6.10
2022-10-14T19:39:16.040Z,4.20
2022-10-14T19:44:14.295Z,4.00
2022-10-14T19:46:43.230Z,4.70
2022-10-14T19:49:13.181Z,3.70
2022-10-14T19:51:40.965Z,5.20
2022-10-14T19:54:11.688Z,5.30
2022-10-14T19:56:39.750Z,7.00
2022-10-14T19:59:07.330Z,4.30
2022-10-14T20:01:35.358Z,3.30
2022-10-14T20:04:03.063Z,4.30
2022-10-14T20:06:35.822Z,3.40
2022-10-14T20:09:04.593Z,4.10
2022-10-14T20:11:32.082Z,4.30
2022-10-14T20:13:59.677Z,3.70
2022-10-14T20:16:27.330Z,2.80
2022-10-14T20:18:56.023Z,2.70
2022-10-14T20:21:23.851Z,3.70
2022-10-14T20:23:51.364Z,3.60
2022-10-14T20:26:21.331Z,4.80
2022-10-14T20:28:50.327Z,3.70
2022-10-14T20:31:21.904Z,3.60
2022-10-14T20:33:49.573Z,5.20
2022-10-14T20:36:20.781Z,3.80
2022-10-14T20:41:22.346Z,6.30
2022-10-14T20:43:50.631Z,5.00
2022-10-14T20:46:18.843Z,4.70
2022-10-14T20:48:46.659Z,3.90
2022-10-14T20:51:20.401Z,3.60
2022-10-14T20:53:47.734Z,3.90
2022-10-14T20:56:15.159Z,6.20
2022-10-14T20:58:42.688Z,5.90
2022-10-14T21:01:14.437Z,3.50
2022-10-14T21:03:44.467Z,4.00
2022-10-14T21:06:16.605Z,4.60
2022-10-14T21:08:44.000Z,4.60
2022-10-14T21:11:16.102Z,4.40
2022-10-14T21:13:50.344Z,4.60
2022-10-14T21:16:26.657Z,5.50
2022-10-14T21:19:03.957Z,4.20
2022-10-14T21:21:38.249Z,5.00
2022-10-14T21:24:06.812Z,4.00
2022-10-14T21:26:34.366Z,4.30
2022-10-14T21:29:02.971Z,4.70
2022-10-14T21:31:31.390Z,4.50
2022-10-14T21:34:05.443Z,4.80
2022-10-14T21:36:35.473Z,4.70
2022-10-14T21:39:12.179Z,5.30
2022-10-14T21:41:40.805Z,4.30
2022-10-14T21:44:10.502Z,5.40
2022-10-14T21:46:37.807Z,5.00
2022-10-14T21:49:05.263Z,4.50
2022-10-14T21:51:32.788Z,5.00
2022-10-14T21:54:00.129Z,4.60
2022-10-14T21:56:28.166Z,5.00
2022-10-14T21:58:56.353Z,5.30
2022-10-14T22:01:27.747Z,4.50
2022-10-14T22:04:03.800Z,5.20
2022-10-14T22:06:34.508Z,5.10
2022-10-14T22:09:05.512Z,5.40
2022-10-14T22:11:39.825Z,5.40
2022-10-14T22:14:12.810Z,7.90
2022-10-14T22:16:40.799Z,5.70
2022-10-14T22:19:08.486Z,5.80
2022-10-14T22:21:37.779Z,5.70
2022-10-14T22:24:09.226Z,4.80
2022-10-14T22:26:37.769Z,5.90
2022-10-14T22:29:10.476Z,4.70
2022-10-14T22:31:38.087Z,5.10
2022-10-14T22:34:07.382Z,5.00
2022-10-14T22:36:35.954Z,5.50
2022-10-14T22:39:08.274Z,5.60
2022-10-14T22:41:36.179Z,4.90
2022-10-14T22:44:05.435Z,5.50
2022-10-14T22:46:36.013Z,5.70
2022-10-14T22:49:04.182Z,6.10
2022-10-14T22:51:36.210Z,5.10
2022-10-14T22:54:03.887Z,5.60
2022-10-14T22:56:32.335Z,5.30
2022-10-14T22:59:09.068Z,5.30
2022-10-14T23:01:37.384Z,7.10
2022-10-14T23:04:04.950Z,5.40
2022-10-14T23:06:32.698Z,5.10
2022-10-14T23:09:00.761Z,5.80
2022-10-14T23:11:30.456Z,5.70
2022-10-14T23:14:00.317Z,5.20
2022-10-14T23:16:30.447Z,6.20
2022-10-14T23:18:59.149Z,6.10
2022-10-14T23:21:33.024Z,5.40
2022-10-14T23:24:04.218Z,5.40
2022-10-14T23:29:02.966Z,6.30
2022-10-14T23:31:34.137Z,6.70
2022-10-14T23:34:04.622Z,7.30
2022-10-14T23:36:32.780Z,6.30
2022-10-14T23:39:00.395Z,7.20
2022-10-14T23:41:28.107Z,7.90
2022-10-14T23:43:56.795Z,8.70
2022-10-14T23:46:24.473Z,8.70
2022-10-14T23:49:06.802Z,8.40
2022-10-14T23:51:35.717Z,8.30
2022-10-14T23:54:04.381Z,9.20
2022-10-14T23:56:31.650Z,7.30
2022-10-14T23:58:59.195Z,8.20
